Latest Weather Observations for Murganella Airstrip

IDD60801

Issued at 9:01 am CST Monday 27 February 2017 (issued every 30 minutes, with the page automatically refreshed every 10 minutes)

About weather observations | Map of weather stations | Latest weather observations for NT | Other Formats
Station Details ID: 014309 Name: MURGANELLA AIRSTRIP Lat: -11.55 Lon: 132.93 Height: 9.5 m
Data from the previous 72 hours. | See also: Recent months at Murganella Airstrip
Date/Time
CST
Temp
°C
App
Temp
°C
Dew
Point
°C
Rel
Hum
%
Delta-T
°C
Wind Press
QNH
hPa
Press
MSL
hPa
Rain since
9am
mm
Dir  Spd
km/h
Gust
km/h
Spd
kts
Gust
kts
27/09:00am 29.4 35.0 25.4 79 2.8 E 6 7 3 4 1009.4 1009.3 5.0
27/08:30am 28.3 33.9 24.9 82 2.4 ESE 4 6 2 3 1009.2 1009.1 5.0
27/08:00am 26.9 32.4 24.7 88 1.5 SE 4 6 2 3 1008.7 1008.6 5.0
27/07:30am 25.3 31.0 24.4 95 0.6 SSE 2 4 1 2 1008.2 1008.1 5.0
27/07:00am 24.4 29.6 23.5 95 0.6 SSE 2 4 1 2 1008.0 1007.9 5.0
27/06:30am 24.4 30.0 23.5 95 0.6 CALM 0 6 0 3 1007.7 1007.6 5.0
27/06:00am 24.5 30.2 23.8 96 0.5 CALM 0 0 0 0 1007.8 1007.7 5.0
27/05:30am 24.2 28.9 23.3 95 0.6 ESE 4 4 2 2 1007.4 1007.3 5.0
27/05:00am 24.3 29.0 23.4 95 0.6 SE 4 6 2 3 1007.3 1007.2 5.0
27/04:30am 24.4 29.6 23.5 95 0.6 E 2 4 1 2 1007.5 1007.4 5.0
27/04:00am 24.7 30.4 23.8 95 0.6 CALM 0 2 0 1 1007.2 1007.1 5.0
27/03:30am 24.8 30.2 23.9 95 0.6 SSW 2 4 1 2 1007.3 1007.2 5.0
27/03:00am 24.9 30.7 23.9 94 0.7 CALM 0 4 0 2 1007.4 1007.3 5.0
27/02:30am 25.1 30.6 24.1 94 0.7 S 2 2 1 1 1008.0 1007.9 5.0
27/02:00am 25.2 31.2 24.2 94 0.7 CALM 0 2 0 1 1008.4 1008.3 5.0
27/01:30am 25.3 30.6 24.3 94 0.7 S 4 6 2 3 1008.8 1008.7 5.0
27/01:00am 25.3 30.6 24.4 95 0.6 SSW 4 6 2 3 1009.0 1008.9 5.0
27/12:30am 25.4 30.4 24.5 95 0.6 S 6 11 3 6 1009.1 1009.0 5.0
27/12:00am 25.5 31.7 24.6 95 0.6 CALM 0 0 0 0 1009.1 1009.0 5.0
 
Date/Time
CST
Temp
°C
App
Temp
°C
Dew
Point
°C
Rel
Hum
%
Delta-T
°C
Wind Press
QNH
hPa
Press
MSL
hPa
Rain since
9am
mm
Dir  Spd
km/h
Gust
km/h
Spd
kts
Gust
kts
26/11:30pm 25.5 31.6 24.5 94 0.7 CALM 0 0 0 0 1009.0 1008.9 5.0
26/11:00pm 25.4 31.0 24.2 93 0.8 S 2 4 1 2 1009.4 1009.3 5.0
26/10:30pm 25.4 30.2 24.2 93 0.8 S 6 9 3 5 1009.5 1009.4 5.0
26/10:00pm 25.7 30.8 24.7 94 0.7 S 6 9 3 5 1009.1 1009.0 5.0
26/09:30pm 25.8 30.8 24.8 94 0.7 SSE 7 13 4 7 1009.0 1008.9 5.0
26/09:00pm 26.2 32.4 25.2 94 0.7 SSW 2 2 1 1 1008.7 1008.6 5.0
26/08:30pm 26.3 31.8 25.3 94 0.7 SSW 6 9 3 5 1008.4 1008.3 4.6
26/08:00pm 26.4 33.1 25.4 94 0.7 CALM 0 0 0 0 1007.9 1007.8 4.6
26/07:30pm 26.3 32.7 24.9 92 1.0 CALM 0 0 0 0 1007.0 1006.9 4.4
26/07:00pm 26.3 32.7 24.9 92 1.0 CALM 0 4 0 2 1007.0 1006.9 4.2
26/06:30pm 26.4 32.5 25.0 92 1.0 NNW 2 4 1 2 1006.6 1006.5 4.0
26/06:00pm 26.5 32.9 24.9 91 1.1 CALM 0 4 0 2 1006.9 1006.8 4.0
26/05:30pm 26.3 31.7 24.5 90 1.2 WSW 4 6 2 3 1005.9 1005.8 4.0
26/05:00pm 26.3 31.2 24.3 89 1.4 SSW 6 7 3 4 1006.0 1005.9 4.0
26/04:30pm 26.4 32.2 24.6 90 1.3 NNW 2 4 1 2 1005.6 1005.5 4.0
26/04:00pm 26.4 31.7 24.4 89 1.4 NNW 4 9 2 5 1005.5 1005.4 4.0
26/03:30pm 27.1 32.2 24.7 87 1.7 W 6 13 3 7 1005.9 1005.8 3.8
26/03:00pm 28.4 34.5 25.6 85 2.0 NNE 4 7 2 4 1005.8 1005.7 0.6
26/02:30pm 29.8 34.9 25.5 78 3.0 NE 9 17 5 9 1006.0 1005.9 0.0
26/02:00pm 31.7 35.5 24.0 63 5.4 NNE 11 22 6 12 1005.8 1005.7 0.0
26/01:30pm 34.3 39.6 24.3 56 7.0 ESE 4 9 2 5 1005.9 1005.8 0.0
26/01:00pm 33.8 38.4 23.8 56 7.0 ESE 6 13 3 7 1006.2 1006.1 0.0
26/12:30pm 33.8 37.3 22.9 53 7.5 S 9 15 5 8 1006.7 1006.6 0.0
26/12:00pm 33.7 39.1 25.1 60 6.1 SSW 6 11 3 6 1007.0 1006.9 0.0
26/11:30am 32.1 36.9 24.4 63 5.4 SSW 7 15 4 8 1007.5 1007.4 0.0
26/11:00am 31.9 36.7 24.5 65 5.2 S 7 15 4 8 1007.8 1007.7 0.0
26/10:30am 31.4 36.4 24.8 68 4.6 S 7 11 4 6 1008.1 1008.0 0.0
26/10:00am 30.8 35.4 24.2 68 4.6 S 7 15 4 8 1008.3 1008.2 0.0
26/09:30am 29.9 34.7 24.5 73 3.8 S 7 11 4 6 1008.5 1008.4 0.0
26/09:00am 29.0 34.1 24.6 77 3.1 SSW 6 11 3 6 1008.6 1008.5 0.4
26/08:30am 27.7 33.5 25.1 86 1.8 SSW 4 7 2 4 1008.6 1008.5 0.4
26/08:00am 26.1 31.7 24.9 93 0.8 SSW 4 6 2 3 1008.7 1008.6 0.4
26/07:30am 25.2 31.3 24.5 96 0.5 CALM 0 0 0 0 1008.3 1008.2 0.4
26/07:00am 24.2 29.6 23.3 95 0.6 CALM 0 0 0 0 1007.8 1007.7 0.4
26/06:30am 24.6 29.6 23.9 96 0.5 SSW 4 6 2 3 1007.6 1007.5 0.4
26/06:00am 24.1 29.1 23.2 95 0.6 S 2 2 1 1 1007.5 1007.4 0.4
26/05:30am 24.2 29.3 23.3 95 0.6 SW 2 4 1 2 1007.4 1007.3 0.4
26/05:00am 24.2 29.6 23.2 94 0.7 CALM 0 0 0 0 1007.6 1007.5 0.4
26/04:30am 24.5 29.7 23.6 95 0.6 SW 2 4 1 2 1007.6 1007.5 0.4
26/04:00am 24.6 29.5 23.7 95 0.6 S 4 6 2 3 1007.8 1007.7 0.4
26/03:30am 24.7 30.1 23.8 95 0.6 SW 2 6 1 3 1007.8 1007.7 0.4
26/03:00am 24.8 29.8 23.9 95 0.6 S 4 6 2 3 1008.0 1007.9 0.4
26/02:30am 24.9 29.6 23.9 94 0.7 S 6 7 3 4 1008.4 1008.3 0.4
26/02:00am 25.0 30.1 24.1 95 0.6 S 4 4 2 2 1008.7 1008.6 0.4
26/01:30am 25.1 30.7 24.2 95 0.6 SSE 2 4 1 2 1009.0 1008.9 0.4
26/01:00am 25.0 30.9 24.1 95 0.6 CALM 0 0 0 0 1009.1 1009.0 0.4
26/12:30am 24.8 29.8 23.9 95 0.6 SSE 4 7 2 4 1009.6 1009.5 0.4
26/12:00am 24.7 30.1 23.8 95 0.6 SSW 2 4 1 2 1010.0 1009.9 0.4
 
Date/Time
CST
Temp
°C
App
Temp
°C
Dew
Point
°C
Rel
Hum
%
Delta-T
°C
Wind Press
QNH
hPa
Press
MSL
hPa
Rain since
9am
mm
Dir  Spd
km/h
Gust
km/h
Spd
kts
Gust
kts
25/11:30pm 24.6 30.3 23.7 95 0.6 CALM 0 2 0 1 1009.9 1009.8 0.4
25/11:00pm 24.3 29.0 23.3 94 0.7 SE 4 6 2 3 1010.0 1009.9 0.4
25/10:30pm 24.2 28.7 23.0 93 0.8 SSE 4 6 2 3 1009.6 1009.5 0.4
25/10:00pm 24.4 29.0 23.2 93 0.8 W 4 4 2 2 1009.2 1009.1 0.4
25/09:30pm 24.7 30.3 23.5 93 0.8 CALM 0 0 0 0 1009.0 1008.9 0.4
25/09:00pm 24.9 30.5 23.5 92 1.0 CALM 0 2 0 1 1008.8 1008.7 0.2
25/08:30pm 25.0 30.2 23.6 92 1.0 ESE 2 6 1 3 1008.3 1008.2 0.2
25/08:00pm 25.0 29.6 23.2 90 1.2 NE 4 7 2 4 1007.9 1007.8 0.2
25/07:30pm 26.0 30.0 22.7 82 2.2 SW 6 9 3 5 1008.3 1008.2 0.2
25/07:00pm 27.8 30.9 23.6 78 2.9 S 13 28 7 15 1009.2 1009.1 0.0
25/06:30pm 28.3 33.7 25.1 83 2.2 SW 6 9 3 5 1008.3 1008.2 0.0
25/06:00pm 29.2 35.5 25.4 80 2.7 NNW 2 4 1 2 1008.0 1007.9 0.0
25/05:30pm 29.2 34.9 25.0 78 3.0 NNW 4 7 2 4 1007.0 1006.9 0.0
25/05:00pm 29.1 34.4 24.9 78 2.9 NNW 6 11 3 6 1007.1 1007.0 0.0
25/04:30pm 28.9 34.2 24.9 79 2.8 W 6 7 3 4 1007.4 1007.3 0.0
25/04:00pm 28.8 34.1 24.4 77 3.1 NW 4 7 2 4 1007.7 1007.6 0.0
25/03:30pm 28.5 33.6 24.1 77 3.1 WNW 4 7 2 4 1007.8 1007.7 0.0
25/03:00pm 28.9 33.4 24.0 75 3.4 WNW 7 13 4 7 1008.0 1007.9 0.0
25/02:30pm 30.1 35.0 24.7 73 3.8 NNW 7 13 4 7 1008.0 1007.9 0.0
25/02:00pm 31.1 36.1 24.5 68 4.6 NW 6 11 3 6 1008.3 1008.2 0.0
25/01:30pm 33.3 39.1 24.5 60 6.2 ESE 2 6 1 3 1008.7 1008.6 0.0
25/01:00pm 32.9 38.3 23.8 58 6.3 WNW 2 4 1 2 1009.2 1009.1 0.0
25/12:30pm 32.6 37.0 23.5 58 6.3 SSW 6 9 3 5 1009.8 1009.7 0.0
25/12:00pm 32.3 36.7 23.5 59 6.1 S 6 9 3 5 1010.4 1010.3 0.0
25/11:30am 31.9 36.8 23.7 62 5.7 SE 4 9 2 5 1010.9 1010.8 0.0
25/11:00am 31.4 36.0 23.2 61 5.6 SSE 4 7 2 4 1011.3 1011.2 0.0
25/10:30am 31.1 35.9 24.2 66 4.8 SW 6 13 3 7 1011.5 1011.4 0.0
25/10:00am 30.1 35.2 24.7 73 3.8 S 6 9 3 5 1011.7 1011.6 0.0
25/09:30am 30.0 36.0 24.9 74 3.6 SW 2 6 1 3 1011.7 1011.6 0.0
25/09:00am 28.5 34.8 24.7 80 2.7 CALM 0 0 0 0 1011.6 1011.5 0.2
25/08:30am 27.2 33.8 25.2 89 1.4 CALM 0 0 0 0 1011.3 1011.2 0.2
25/08:00am 25.8 32.3 25.1 96 0.5 CALM 0 0 0 0 1010.9 1010.8 0.2
25/07:30am 24.2 29.8 23.5 96 0.5 CALM 0 0 0 0 1010.6 1010.5 0.2
25/07:00am 23.3 28.3 22.5 95 0.5 CALM 0 0 0 0 1010.5 1010.4 0.2
25/06:30am 23.1 27.9 22.1 94 0.7 CALM 0 0 0 0 1010.2 1010.1 0.2
25/06:00am 23.2 28.0 22.2 94 0.7 CALM 0 0 0 0 1010.0 1009.9 0.2
25/05:30am 23.3 28.2 22.3 94 0.7 CALM 0 0 0 0 1009.8 1009.7 0.2
25/05:00am 23.5 28.5 22.5 94 0.7 CALM 0 0 0 0 1009.4 1009.3 0.2
25/04:30am 23.7 28.8 22.7 94 0.7 CALM 0 0 0 0 1009.4 1009.3 0.2
25/04:00am 23.8 29.0 22.8 94 0.7 CALM 0 0 0 0 1009.4 1009.3 0.2
25/03:30am 23.9 29.1 22.9 94 0.7 CALM 0 0 0 0 1009.4 1009.3 0.2
25/03:00am 24.0 29.3 23.0 94 0.7 CALM 0 0 0 0 1009.5 1009.4 0.2
25/02:30am 24.1 29.3 22.9 93 0.8 CALM 0 0 0 0 1010.0 1009.9 0.2
25/02:00am 24.2 29.5 23.0 93 0.8 CALM 0 0 0 0 1010.4 1010.3 0.2
25/01:30am 24.4 29.8 23.2 93 0.8 CALM 0 0 0 0 1010.6 1010.5 0.2
25/01:00am 24.5 29.9 23.3 93 0.8 CALM 0 0 0 0 1010.7 1010.6 0.2
25/12:30am 24.7 30.3 23.5 93 0.8 CALM 0 0 0 0 1010.9 1010.8 0.2
25/12:00am 24.7 30.3 23.5 93 0.8 CALM 0 0 0 0 1011.0 1010.9 0.2
 
Date/Time
CST
Temp
°C
App
Temp
°C
Dew
Point
°C
Rel
Hum
%
Delta-T
°C
Wind Press
QNH
hPa
Press
MSL
hPa
Rain since
9am
mm
Dir  Spd
km/h
Gust
km/h
Spd
kts
Gust
kts
24/11:30pm 24.8 30.3 23.4 92 1.0 CALM 0 0 0 0 1010.9 1010.8 0.2
24/11:00pm 25.1 30.8 23.7 92 1.0 CALM 0 0 0 0 1010.7 1010.6 0.2
24/10:30pm 25.3 31.1 23.9 92 1.0 CALM 0 0 0 0 1010.4 1010.3 0.2
24/10:00pm 25.7 31.6 24.1 91 1.1 CALM 0 0 0 0 1010.4 1010.3 0.2
24/09:30pm 25.9 31.9 24.3 91 1.1 CALM 0 0 0 0 1010.2 1010.1 0.2
24/09:00pm 26.3 32.4 24.5 90 1.2 CALM 0 0 0 0 1010.1 1010.0 0.2
24/08:30pm 26.6 32.8 24.6 89 1.4 CALM 0 0 0 0 1010.0 1009.9 0.2
24/08:00pm 26.9 33.0 24.5 87 1.7 CALM 0 0 0 0 1009.7 1009.6 0.2
24/07:30pm 27.6 33.8 24.6 84 2.1 CALM 0 0 0 0 1009.7 1009.6 0.2
24/07:00pm 28.7 35.2 25.1 81 2.5 CALM 0 0 0 0 1009.3 1009.2 0.2
24/06:30pm 29.0 34.3 24.3 76 3.3 N 4 7 2 4 1008.9 1008.8 0.2
24/06:00pm 30.5 35.3 24.2 69 4.4 NNE 6 11 3 6 1008.9 1008.8 0.2
24/05:30pm 31.1 35.2 24.0 66 4.9 N 9 15 5 8 1008.5 1008.4 0.2
24/05:00pm 31.0 35.4 23.4 64 5.2 N 6 13 3 7 1008.7 1008.6 0.2
24/04:30pm 31.4 36.8 24.5 67 4.8 N 4 6 2 3 1008.4 1008.3 0.2
24/04:00pm 32.0 36.9 24.6 65 5.2 N 7 13 4 7 1008.6 1008.5 0.2
24/03:30pm 32.0 38.2 24.6 65 5.2 CALM 0 2 0 1 1008.8 1008.7 0.2
24/03:00pm 31.8 37.5 24.4 65 5.2 W 2 7 1 4 1008.9 1008.8 0.2
24/02:30pm 31.7 36.9 25.1 68 4.7 WSW 7 11 4 6 1009.1 1009.0 0.2
24/02:00pm 30.0 34.6 25.3 76 3.3 SW 11 20 6 11 1009.9 1009.8 0.2
24/01:30pm 27.1 31.0 24.2 84 2.0 SW 11 19 6 10 1010.2 1010.1 0.2
24/01:00pm 27.5 31.5 23.1 77 3.0 S 7 17 4 9 1010.3 1010.2 0.2
24/12:30pm 31.6 36.4 24.2 65 5.2 WSW 6 11 3 6 1010.5 1010.4 0.0
24/12:00pm 32.4 38.7 26.0 69 4.6 WNW 4 7 2 4 1011.0 1010.9 0.0
24/11:30am 32.5 38.3 25.1 65 5.2 S 4 7 2 4 1011.2 1011.1 0.0
24/11:00am 32.1 37.3 24.2 63 5.5 W 4 7 2 4 1011.3 1011.2 0.0
24/10:30am 30.2 35.5 24.4 71 4.0 NW 4 7 2 4 1011.7 1011.6 0.0
24/10:00am 30.9 36.7 25.7 74 3.7 WSW 6 9 3 5 1011.7 1011.6 0.0
24/09:30am 29.5 34.7 24.8 76 3.3 WNW 6 9 3 5 1011.9 1011.8 0.0

Other Formats:

Comma delimited format used in spreadsheet applications
http://www.bom.gov.au/fwo/IDD60801/IDD60801.94109.axf

JavaScript Object Notation format (JSON) in row-major order
http://www.bom.gov.au/fwo/IDD60801/IDD60801.94109.json